sensor_id;sensor_type;location;lat;lon;timestamp;pressure;altitude;pressure_sealevel;temperature;humidity
13553;BME280;6847;48.830;9.116;2023-07-13T00:00:04;97902.50;;;23.64;49.72
13553;BME280;6847;48.830;9.116;2023-07-13T00:02:34;97903.97;;;23.58;49.95
13553;BME280;6847;48.830;9.116;2023-07-13T00:05:05;97889.34;;;23.42;49.96
13553;BME280;6847;48.830;9.116;2023-07-13T00:07:33;97911.28;;;23.50;49.97
13553;BME280;6847;48.830;9.116;2023-07-13T00:09:59;97906.09;;;23.49;49.94
13553;BME280;6847;48.830;9.116;2023-07-13T00:12:28;97801.16;;;22.79;49.85
13553;BME280;6847;48.830;9.116;2023-07-13T00:14:56;97907.53;;;23.43;49.95
13553;BME280;6847;48.830;9.116;2023-07-13T00:17:23;97901.16;;;23.39;49.97
13553;BME280;6847;48.830;9.116;2023-07-13T00:19:51;97894.03;;;23.38;49.76
13553;BME280;6847;48.830;9.116;2023-07-13T00:22:32;97889.91;;;23.32;49.75
13553;BME280;6847;48.830;9.116;2023-07-13T00:24:59;97892.97;;;23.27;49.81
13553;BME280;6847;48.830;9.116;2023-07-13T00:27:26;97893.25;;;23.21;50.05
13553;BME280;6847;48.830;9.116;2023-07-13T00:29:55;97866.03;;;23.04;49.80
13553;BME280;6847;48.830;9.116;2023-07-13T00:32:22;97885.50;;;23.11;49.89
13553;BME280;6847;48.830;9.116;2023-07-13T00:34:50;97875.91;;;23.05;50.02
13553;BME280;6847;48.830;9.116;2023-07-13T00:37:18;97876.19;;;23.00;50.10
13553;BME280;6847;48.830;9.116;2023-07-13T00:39:48;97873.34;;;22.97;49.84
13553;BME280;6847;48.830;9.116;2023-07-13T00:42:16;97876.00;;;22.93;49.97
13553;BME280;6847;48.830;9.116;2023-07-13T00:45:02;97881.81;;;22.88;50.00
13553;BME280;6847;48.830;9.116;2023-07-13T00:47:29;97866.41;;;22.71;49.80
13553;BME280;6847;48.830;9.116;2023-07-13T00:49:56;97877.53;;;22.75;50.02
13553;BME280;6847;48.830;9.116;2023-07-13T00:52:24;97880.56;;;22.70;49.98
13553;BME280;6847;48.830;9.116;2023-07-13T00:54:55;97837.22;;;22.39;50.19
13553;BME280;6847;48.830;9.116;2023-07-13T00:57:23;97878.78;;;22.62;50.08
13553;BME280;6847;48.830;9.116;2023-07-13T00:59:54;97880.00;;;22.64;49.94
13553;BME280;6847;48.830;9.116;2023-07-13T01:02:22;97794.78;;;22.12;50.00
13553;BME280;6847;48.830;9.116;2023-07-13T01:04:49;97886.63;;;22.60;49.86
13553;BME280;6847;48.830;9.116;2023-07-13T01:07:20;97896.75;;;22.56;49.78
13553;BME280;6847;48.830;9.116;2023-07-13T01:09:49;97895.88;;;22.51;49.97
13553;BME280;6847;48.830;9.116;2023-07-13T01:12:21;97863.81;;;22.31;49.89
13553;BME280;6847;48.830;9.116;2023-07-13T01:14:56;97892.22;;;22.47;49.89
13553;BME280;6847;48.830;9.116;2023-07-13T01:17:24;97902.34;;;22.43;49.95
13553;BME280;6847;48.830;9.116;2023-07-13T01:19:53;97845.34;;;22.04;49.82
13553;BME280;6847;48.830;9.116;2023-07-13T01:22:26;97892.28;;;22.35;50.01
13553;BME280;6847;48.830;9.116;2023-07-13T01:24:55;97896.47;;;22.29;49.89
13553;BME280;6847;48.830;9.116;2023-07-13T01:27:25;97870.63;;;22.06;50.07
13553;BME280;6847;48.830;9.116;2023-07-13T01:29:53;97892.28;;;22.20;50.12
13553;BME280;6847;48.830;9.116;2023-07-13T01:32:29;97901.59;;;22.15;50.08
13553;BME280;6847;48.830;9.116;2023-07-13T01:34:59;97901.84;;;22.10;49.95
13553;BME280;6847;48.830;9.116;2023-07-13T01:37:30;97899.44;;;22.08;50.10
13553;BME280;6847;48.830;9.116;2023-07-13T01:40:00;97910.81;;;22.07;50.02
13553;BME280;6847;48.830;9.116;2023-07-13T01:42:29;97913.59;;;22.07;50.03
13553;BME280;6847;48.830;9.116;2023-07-13T01:44:55;97916.59;;;22.02;49.98
13553;BME280;6847;48.830;9.116;2023-07-13T01:47:25;97854.03;;;21.62;50.14
13553;BME280;6847;48.830;9.116;2023-07-13T01:49:54;97917.16;;;21.95;49.98
13553;BME280;6847;48.830;9.116;2023-07-13T01:52:27;97909.22;;;21.94;50.08
13553;BME280;6847;48.830;9.116;2023-07-13T01:54:54;97910.97;;;21.98;50.06
13553;BME280;6847;48.830;9.116;2023-07-13T01:57:27;97909.47;;;22.01;50.00
13553;BME280;6847;48.830;9.116;2023-07-13T01:59:55;97861.94;;;21.64;49.81
13553;BME280;6847;48.830;9.116;2023-07-13T02:02:22;97914.19;;;22.00;49.94
13553;BME280;6847;48.830;9.116;2023-07-13T02:04:50;97916.59;;;22.02;49.82
13553;BME280;6847;48.830;9.116;2023-07-13T02:07:25;97916.59;;;22.02;49.82
13553;BME280;6847;48.830;9.116;2023-07-13T02:09:54;97910.38;;;22.05;49.88
13553;BME280;6847;48.830;9.116;2023-07-13T02:12:21;97922.53;;;22.04;49.76
13553;BME280;6847;48.830;9.116;2023-07-13T02:14:47;97916.59;;;22.02;49.93
13553;BME280;6847;48.830;9.116;2023-07-13T02:17:15;97929.25;;;22.03;49.75
13553;BME280;6847;48.830;9.116;2023-07-13T02:19:42;97889.09;;;21.77;50.05
13553;BME280;6847;48.830;9.116;2023-07-13T02:22:09;97917.97;;;21.96;49.79
13553;BME280;6847;48.830;9.116;2023-07-13T02:24:35;97881.78;;;21.69;49.91
13553;BME280;6847;48.830;9.116;2023-07-13T02:27:05;97916.16;;;21.88;49.99
13553;BME280;6847;48.830;9.116;2023-07-13T02:29:32;97920.31;;;21.82;49.96
13553;BME280;6847;48.830;9.116;2023-07-13T02:31:58;97920.56;;;21.76;49.93
13553;BME280;6847;48.830;9.116;2023-07-13T02:34:26;97917.34;;;21.74;50.04
13553;BME280;6847;48.830;9.116;2023-07-13T02:36:52;97910.94;;;21.70;50.06
13553;BME280;6847;48.830;9.116;2023-07-13T02:39:19;97910.94;;;21.70;50.00
13553;BME280;6847;48.830;9.116;2023-07-13T02:41:45;97916.44;;;21.70;49.88
13553;BME280;6847;48.830;9.116;2023-07-13T02:44:14;97887.34;;;21.45;49.99
13553;BME280;6847;48.830;9.116;2023-07-13T02:46:42;97931.59;;;21.64;49.94
13553;BME280;6847;48.830;9.116;2023-07-13T02:49:08;97937.72;;;21.58;50.01
13553;BME280;6847;48.830;9.116;2023-07-13T02:51:35;97937.84;;;21.49;50.13
13553;BME280;6847;48.830;9.116;2023-07-13T02:54:03;97932.81;;;21.39;50.23
13553;BME280;6847;48.830;9.116;2023-07-13T02:56:33;97929.41;;;21.30;50.35
13553;BME280;6847;48.830;9.116;2023-07-13T02:59:01;97933.88;;;21.22;50.52
13553;BME280;6847;48.830;9.116;2023-07-13T03:01:30;97928.25;;;21.19;50.55
13553;BME280;6847;48.830;9.116;2023-07-13T03:04:00;97931.22;;;21.14;50.44
13553;BME280;6847;48.830;9.116;2023-07-13T03:06:30;97928.00;;;21.12;50.39
13553;BME280;6847;48.830;9.116;2023-07-13T03:08:57;97865.19;;;20.65;50.34
13553;BME280;6847;48.830;9.116;2023-07-13T03:11:26;97930.63;;;21.08;50.47
13553;BME280;6847;48.830;9.116;2023-07-13T03:13:53;97946.00;;;21.09;50.37
13553;BME280;6847;48.830;9.116;2023-07-13T03:16:21;97947.63;;;21.10;50.36
13553;BME280;6847;48.830;9.116;2023-07-13T03:18:52;97947.63;;;21.10;50.28
13553;BME280;6847;48.830;9.116;2023-07-13T03:21:19;97961.03;;;21.12;50.40
13553;BME280;6847;48.830;9.116;2023-07-13T03:23:46;97953.25;;;21.14;50.32
13553;BME280;6847;48.830;9.116;2023-07-13T03:26:16;97949.34;;;21.15;50.36
13553;BME280;6847;48.830;9.116;2023-07-13T03:28:43;97957.53;;;21.23;50.31
13553;BME280;6847;48.830;9.116;2023-07-13T03:31:12;97964.06;;;21.31;50.19
13553;BME280;6847;48.830;9.116;2023-07-13T03:33:41;97968.97;;;21.37;50.61
13553;BME280;6847;48.830;9.116;2023-07-13T03:36:14;97909.88;;;21.11;49.98
13553;BME280;6847;48.830;9.116;2023-07-13T03:38:44;97982.16;;;21.56;50.00
13553;BME280;6847;48.830;9.116;2023-07-13T03:41:11;97979.97;;;21.62;49.93
13553;BME280;6847;48.830;9.116;2023-07-13T03:43:38;97984.75;;;21.65;50.11
13553;BME280;6847;48.830;9.116;2023-07-13T03:46:06;97982.59;;;21.70;49.99
13553;BME280;6847;48.830;9.116;2023-07-13T03:48:33;97992.94;;;21.73;49.87
13553;BME280;6847;48.830;9.116;2023-07-13T03:51:00;97985.09;;;21.75;50.10
13553;BME280;6847;48.830;9.116;2023-07-13T03:53:30;97995.44;;;21.78;50.11
13553;BME280;6847;48.830;9.116;2023-07-13T03:56:00;97992.00;;;21.82;50.00
13553;BME280;6847;48.830;9.116;2023-07-13T03:58:32;97999.53;;;21.85;50.19
13553;BME280;6847;48.830;9.116;2023-07-13T04:01:00;98002.75;;;21.87;50.11
13553;BME280;6847;48.830;9.116;2023-07-13T04:03:34;97979.59;;;21.75;50.24
13553;BME280;6847;48.830;9.116;2023-07-13T04:06:08;98000.47;;;21.89;50.31
13553;BME280;6847;48.830;9.116;2023-07-13T04:08:43;97986.22;;;21.87;50.43
13553;BME280;6847;48.830;9.116;2023-07-13T04:11:09;97985.06;;;21.88;50.21
13553;BME280;6847;48.830;9.116;2023-07-13T04:13:36;97994.94;;;21.89;50.32
13553;BME280;6847;48.830;9.116;2023-07-13T04:16:03;97991.84;;;21.90;50.25
13553;BME280;6847;48.830;9.116;2023-07-13T04:18:30;97993.53;;;21.95;50.31
13553;BME280;6847;48.830;9.116;2023-07-13T04:20:56;97990.25;;;22.01;50.39
13553;BME280;6847;48.830;9.116;2023-07-13T04:23:23;97990.31;;;22.05;50.38
13553;BME280;6847;48.830;9.116;2023-07-13T04:25:52;97999.50;;;22.09;50.06
13553;BME280;6847;48.830;9.116;2023-07-13T04:28:22;97998.72;;;22.08;50.16
13553;BME280;6847;48.830;9.116;2023-07-13T04:30:51;97996.31;;;22.07;50.32
13553;BME280;6847;48.830;9.116;2023-07-13T04:33:19;97998.41;;;21.98;50.11
13553;BME280;6847;48.830;9.116;2023-07-13T04:35:51;97933.75;;;21.43;50.46
13553;BME280;6847;48.830;9.116;2023-07-13T04:38:22;97996.44;;;21.86;50.41
13553;BME280;6847;48.830;9.116;2023-07-13T04:40:54;98002.56;;;21.79;50.64
13553;BME280;6847;48.830;9.116;2023-07-13T04:43:25;98002.34;;;21.72;50.71
13553;BME280;6847;48.830;9.116;2023-07-13T04:45:53;98002.09;;;21.65;50.65
13553;BME280;6847;48.830;9.116;2023-07-13T04:48:23;98005.13;;;21.60;50.69
13553;BME280;6847;48.830;9.116;2023-07-13T04:50:56;98013.59;;;21.55;50.67
13553;BME280;6847;48.830;9.116;2023-07-13T04:53:24;98001.00;;;21.42;50.96
13553;BME280;6847;48.830;9.116;2023-07-13T04:55:52;98012.91;;;21.46;50.75
13553;BME280;6847;48.830;9.116;2023-07-13T04:58:21;98014.06;;;21.45;50.90
13553;BME280;6847;48.830;9.116;2023-07-13T05:00:50;98015.66;;;21.46;50.82
13553;BME280;6847;48.830;9.116;2023-07-13T05:03:48;98020.75;;;21.44;50.86
13553;BME280;6847;48.830;9.116;2023-07-13T05:06:14;98015.66;;;21.46;50.73
13553;BME280;6847;48.830;9.116;2023-07-13T05:08:41;97933.97;;;21.01;50.72
13553;BME280;6847;48.830;9.116;2023-07-13T05:11:09;98019.22;;;21.59;50.77
13553;BME280;6847;48.830;9.116;2023-07-13T05:13:36;98017.94;;;21.68;50.57
13553;BME280;6847;48.830;9.116;2023-07-13T05:16:04;98019.88;;;21.80;50.42
13553;BME280;6847;48.830;9.116;2023-07-13T05:18:33;98023.53;;;21.96;50.36
13553;BME280;6847;48.830;9.116;2023-07-13T05:21:02;98026.41;;;22.12;50.24
13553;BME280;6847;48.830;9.116;2023-07-13T05:23:29;98027.50;;;22.23;50.10
13553;BME280;6847;48.830;9.116;2023-07-13T05:25:56;98022.09;;;22.27;50.20
13553;BME280;6847;48.830;9.116;2023-07-13T05:28:25;98032.72;;;22.40;49.94
13553;BME280;6847;48.830;9.116;2023-07-13T05:30:52;98013.75;;;22.39;50.14
13553;BME280;6847;48.830;9.116;2023-07-13T05:33:19;98029.38;;;22.63;50.06
13553;BME280;6847;48.830;9.116;2023-07-13T05:35:49;98028.78;;;22.69;50.04
13553;BME280;6847;48.830;9.116;2023-07-13T05:38:16;98026.25;;;22.76;50.19
13553;BME280;6847;48.830;9.116;2023-07-13T05:40:44;98023.66;;;22.83;50.07
13553;BME280;6847;48.830;9.116;2023-07-13T05:43:10;98020.31;;;22.90;50.10
13553;BME280;6847;48.830;9.116;2023-07-13T05:45:41;98022.34;;;22.93;50.17
13553;BME280;6847;48.830;9.116;2023-07-13T05:48:08;98020.03;;;22.95;50.28
13553;BME280;6847;48.830;9.116;2023-07-13T05:50:34;98017.56;;;22.90;50.16
13553;BME280;6847;48.830;9.116;2023-07-13T05:53:01;98039.13;;;23.00;50.12
13553;BME280;6847;48.830;9.116;2023-07-13T05:55:27;98037.22;;;23.04;50.14
13553;BME280;6847;48.830;9.116;2023-07-13T05:57:55;98005.72;;;22.90;50.04
13553;BME280;6847;48.830;9.116;2023-07-13T06:00:23;98042.50;;;23.09;50.10
13553;BME280;6847;48.830;9.116;2023-07-13T06:02:52;98043.59;;;23.20;50.04
13553;BME280;6847;48.830;9.116;2023-07-13T06:05:23;98047.84;;;23.34;49.92
13553;BME280;6847;48.830;9.116;2023-07-13T06:07:49;98000.91;;;23.18;49.79
13553;BME280;6847;48.830;9.116;2023-07-13T06:10:18;98043.31;;;23.57;49.77
13553;BME280;6847;48.830;9.116;2023-07-13T06:12:44;98058.00;;;23.61;49.54
13553;BME280;6847;48.830;9.116;2023-07-13T06:15:21;98056.84;;;23.62;49.59
13553;BME280;6847;48.830;9.116;2023-07-13T06:17:50;98057.84;;;23.54;49.72
13553;BME280;6847;48.830;9.116;2023-07-13T06:20:17;98025.28;;;23.32;49.71
13553;BME280;6847;48.830;9.116;2023-07-13T06:22:44;98064.28;;;23.58;49.62
13553;BME280;6847;48.830;9.116;2023-07-13T06:25:15;98066.03;;;23.66;49.62
13553;BME280;6847;48.830;9.116;2023-07-13T06:27:44;98062.81;;;23.64;49.37
13553;BME280;6847;48.830;9.116;2023-07-13T06:30:14;98067.00;;;23.74;49.46
13553;BME280;6847;48.830;9.116;2023-07-13T06:32:44;98011.84;;;23.30;49.38
13553;BME280;6847;48.830;9.116;2023-07-13T06:35:13;98083.75;;;23.81;49.18
13553;BME280;6847;48.830;9.116;2023-07-13T06:37:41;98084.81;;;23.92;49.21
13553;BME280;6847;48.830;9.116;2023-07-13T06:40:16;97825.09;;;22.43;48.89
13553;BME280;6847;48.830;9.116;2023-07-13T06:42:43;98077.53;;;24.19;48.82
13553;BME280;6847;48.830;9.116;2023-07-13T06:45:10;98091.31;;;24.34;48.71
13553;BME280;6847;48.830;9.116;2023-07-13T06:47:38;98075.53;;;24.35;48.64
13553;BME280;6847;48.830;9.116;2023-07-13T06:50:05;98102.31;;;24.50;48.47
13553;BME280;6847;48.830;9.116;2023-07-13T06:52:35;98096.22;;;24.60;48.33
13553;BME280;6847;48.830;9.116;2023-07-13T06:55:45;98074.50;;;24.62;48.13
13553;BME280;6847;48.830;9.116;2023-07-13T06:58:14;97988.72;;;24.24;47.91
13553;BME280;6847;48.830;9.116;2023-07-13T07:00:49;98097.53;;;25.05;47.83
13553;BME280;6847;48.830;9.116;2023-07-13T07:03:16;98099.94;;;25.06;47.67
13553;BME280;6847;48.830;9.116;2023-07-13T07:05:43;98098.69;;;25.04;47.82
13553;BME280;6847;48.830;9.116;2023-07-13T07:08:14;98107.72;;;25.01;47.66
13553;BME280;6847;48.830;9.116;2023-07-13T07:10:44;97884.91;;;23.53;48.01
13553;BME280;6847;48.830;9.116;2023-07-13T07:13:14;97984.47;;;24.11;47.59
13553;BME280;6847;48.830;9.116;2023-07-13T07:15:44;98100.53;;;24.96;47.53
13553;BME280;6847;48.830;9.116;2023-07-13T07:18:10;98107.72;;;25.01;47.41
13553;BME280;6847;48.830;9.116;2023-07-13T07:20:39;98066.03;;;24.75;47.35
13553;BME280;6847;48.830;9.116;2023-07-13T07:23:07;98110.22;;;24.87;47.56
13553;BME280;6847;48.830;9.116;2023-07-13T07:25:34;98116.91;;;24.86;47.35
13553;BME280;6847;48.830;9.116;2023-07-13T07:28:08;98101.34;;;24.97;47.15
13553;BME280;6847;48.830;9.116;2023-07-13T07:30:34;98075.06;;;24.91;47.30
13553;BME280;6847;48.830;9.116;2023-07-13T07:33:01;98114.13;;;25.24;46.66
13553;BME280;6847;48.830;9.116;2023-07-13T07:35:28;98116.56;;;25.29;46.58
13553;BME280;6847;48.830;9.116;2023-07-13T07:37:55;98106.03;;;25.38;46.43
13553;BME280;6847;48.830;9.116;2023-07-13T07:40:21;98104.31;;;25.53;46.25
13553;BME280;6847;48.830;9.116;2023-07-13T07:42:48;98101.00;;;25.67;46.24
13553;BME280;6847;48.830;9.116;2023-07-13T07:45:18;98101.22;;;25.81;46.25
13553;BME280;6847;48.830;9.116;2023-07-13T07:47:45;98105.28;;;25.87;45.67
13553;BME280;6847;48.830;9.116;2023-07-13T07:50:11;98112.56;;;25.95;46.02
13553;BME280;6847;48.830;9.116;2023-07-13T07:52:39;98084.69;;;25.88;45.63
13553;BME280;6847;48.830;9.116;2023-07-13T07:55:11;98109.69;;;26.14;45.83
13553;BME280;6847;48.830;9.116;2023-07-13T07:57:39;98107.56;;;26.31;45.22
13553;BME280;6847;48.830;9.116;2023-07-13T08:00:07;98118.16;;;26.51;45.45
13553;BME280;6847;48.830;9.116;2023-07-13T08:02:42;98111.94;;;26.62;45.19
13553;BME280;6847;48.830;9.116;2023-07-13T08:05:10;98122.00;;;26.73;45.02
13553;BME280;6847;48.830;9.116;2023-07-13T08:07:40;98118.19;;;26.88;44.94
13553;BME280;6847;48.830;9.116;2023-07-13T08:10:07;97958.03;;;25.99;44.76
13553;BME280;6847;48.830;9.116;2023-07-13T08:12:37;98124.47;;;27.12;44.32
13553;BME280;6847;48.830;9.116;2023-07-13T08:15:12;98113.84;;;27.21;44.70
13553;BME280;6847;48.830;9.116;2023-07-13T08:17:59;98112.78;;;27.36;44.12
13553;BME280;6847;48.830;9.116;2023-07-13T08:20:44;98110.41;;;27.38;44.03
13553;BME280;6847;48.830;9.116;2023-07-13T08:23:12;97988.06;;;26.53;43.85
13553;BME280;6847;48.830;9.116;2023-07-13T08:25:41;98008.13;;;26.73;43.82
13553;BME280;6847;48.830;9.116;2023-07-13T08:28:10;98119.94;;;27.37;44.14
13553;BME280;6847;48.830;9.116;2023-07-13T08:30:36;98121.28;;;27.50;43.77
13553;BME280;6847;48.830;9.116;2023-07-13T08:33:22;98118.28;;;27.70;43.63
13553;BME280;6847;48.830;9.116;2023-07-13T08:35:51;98121.63;;;27.89;43.47
13553;BME280;6847;48.830;9.116;2023-07-13T08:38:18;98089.03;;;27.90;43.24
13553;BME280;6847;48.830;9.116;2023-07-13T08:40:50;98113.06;;;28.16;43.08
13553;BME280;6847;48.830;9.116;2023-07-13T08:43:20;98114.16;;;28.04;43.09
13553;BME280;6847;48.830;9.116;2023-07-13T08:45:52;98120.50;;;28.01;42.84
13553;BME280;6847;48.830;9.116;2023-07-13T08:48:26;98127.56;;;27.88;42.80
13553;BME280;6847;48.830;9.116;2023-07-13T08:50:58;98129.41;;;27.70;42.90
13553;BME280;6847;48.830;9.116;2023-07-13T08:53:32;98107.94;;;27.67;42.86
13553;BME280;6847;48.830;9.116;2023-07-13T08:56:02;98090.22;;;27.89;42.50
13553;BME280;6847;48.830;9.116;2023-07-13T08:58:30;98125.59;;;28.50;42.02
13553;BME280;6847;48.830;9.116;2023-07-13T09:01:02;98131.03;;;28.94;41.75
13553;BME280;6847;48.830;9.116;2023-07-13T09:03:35;98129.53;;;29.36;41.27
13553;BME280;6847;48.830;9.116;2023-07-13T09:06:06;98107.28;;;29.64;40.56
13553;BME280;6847;48.830;9.116;2023-07-13T09:08:46;98131.59;;;30.17;40.84
13553;BME280;6847;48.830;9.116;2023-07-13T09:11:33;98140.34;;;30.55;40.28
13553;BME280;6847;48.830;9.116;2023-07-13T09:14:13;97991.63;;;30.01;40.21
13553;BME280;6847;48.830;9.116;2023-07-13T09:16:50;98076.47;;;30.53;39.83
13553;BME280;6847;48.830;9.116;2023-07-13T09:19:21;98129.13;;;30.62;40.12
13553;BME280;6847;48.830;9.116;2023-07-13T09:21:52;98108.47;;;30.13;40.76
13553;BME280;6847;48.830;9.116;2023-07-13T09:24:36;98086.97;;;29.96;40.17
13553;BME280;6847;48.830;9.116;2023-07-13T09:27:30;98137.13;;;30.38;40.10
13553;BME280;6847;48.830;9.116;2023-07-13T09:30:20;97980.13;;;29.49;39.93
13553;BME280;6847;48.830;9.116;2023-07-13T09:32:52;98134.72;;;30.51;39.72
13553;BME280;6847;48.830;9.116;2023-07-13T09:35:34;98129.53;;;30.49;39.47
13553;BME280;6847;48.830;9.116;2023-07-13T09:38:11;98133.16;;;30.53;39.83
13553;BME280;6847;48.830;9.116;2023-07-13T09:40:49;98127.44;;;30.89;38.98
13553;BME280;6847;48.830;9.116;2023-07-13T09:43:20;98131.91;;;31.49;38.60
13553;BME280;6847;48.830;9.116;2023-07-13T09:45:47;98132.59;;;32.19;37.56
13553;BME280;6847;48.830;9.116;2023-07-13T09:48:15;98137.38;;;33.27;36.54
13553;BME280;6847;48.830;9.116;2023-07-13T09:50:47;98138.63;;;34.89;33.82
13553;BME280;6847;48.830;9.116;2023-07-13T09:53:31;98142.97;;;36.47;32.50
13553;BME280;6847;48.830;9.116;2023-07-13T09:55:58;98147.63;;;37.78;31.42
13553;BME280;6847;48.830;9.116;2023-07-13T09:58:29;98048.16;;;38.18;30.30
13553;BME280;6847;48.830;9.116;2023-07-13T10:01:02;98146.97;;;39.12;30.19
13553;BME280;6847;48.830;9.116;2023-07-13T10:03:31;98146.78;;;38.85;30.40
13553;BME280;6847;48.830;9.116;2023-07-13T10:06:15;98139.09;;;38.04;31.21
13553;BME280;6847;48.830;9.116;2023-07-13T10:08:47;98142.50;;;37.99;31.43
13553;BME280;6847;48.830;9.116;2023-07-13T10:11:19;98132.34;;;37.63;31.68
13553;BME280;6847;48.830;9.116;2023-07-13T10:13:51;98139.41;;;37.17;31.87
13553;BME280;6847;48.830;9.116;2023-07-13T10:16:19;98135.66;;;37.08;31.58
13553;BME280;6847;48.830;9.116;2023-07-13T10:18:48;98135.88;;;36.43;32.55
13553;BME280;6847;48.830;9.116;2023-07-13T10:21:35;98133.41;;;35.96;32.65
13553;BME280;6847;48.830;9.116;2023-07-13T10:24:21;97922.88;;;35.03;32.06
13553;BME280;6847;48.830;9.116;2023-07-13T10:27:00;98024.97;;;36.46;31.22
13553;BME280;6847;48.830;9.116;2023-07-13T10:29:46;98132.91;;;37.58;30.60
13553;BME280;6847;48.830;9.116;2023-07-13T10:32:29;97995.78;;;36.65;30.69
13553;BME280;6847;48.830;9.116;2023-07-13T10:35:12;98129.81;;;37.15;31.21
13553;BME280;6847;48.830;9.116;2023-07-13T10:37:48;98134.31;;;36.71;31.74
13553;BME280;6847;48.830;9.116;2023-07-13T10:40:19;98139.84;;;36.74;31.59
13553;BME280;6847;48.830;9.116;2023-07-13T10:42:51;98134.09;;;36.49;31.77
13553;BME280;6847;48.830;9.116;2023-07-13T10:45:22;98089.72;;;35.55;31.98
13553;BME280;6847;48.830;9.116;2023-07-13T10:47:51;98127.97;;;35.73;32.37
13553;BME280;6847;48.830;9.116;2023-07-13T10:50:23;98067.28;;;34.80;32.93
13553;BME280;6847;48.830;9.116;2023-07-13T10:52:53;98133.41;;;34.68;32.97
13553;BME280;6847;48.830;9.116;2023-07-13T10:55:36;98135.94;;;34.63;32.42
13553;BME280;6847;48.830;9.116;2023-07-13T10:58:13;98131.41;;;35.28;31.74
13553;BME280;6847;48.830;9.116;2023-07-13T11:00:48;98125.25;;;36.02;30.92
13553;BME280;6847;48.830;9.116;2023-07-13T11:03:17;98133.38;;;36.45;30.33
13553;BME280;6847;48.830;9.116;2023-07-13T11:05:49;98132.91;;;36.33;30.54
13553;BME280;6847;48.830;9.116;2023-07-13T11:08:32;98131.78;;;36.44;30.63
13553;BME280;6847;48.830;9.116;2023-07-13T11:11:37;98123.97;;;37.47;29.50
13553;BME280;6847;48.830;9.116;2023-07-13T11:14:26;98121.16;;;38.32;29.16
13553;BME280;6847;48.830;9.116;2023-07-13T11:16:53;98125.28;;;39.18;27.90
13553;BME280;6847;48.830;9.116;2023-07-13T11:19:40;98062.44;;;39.33;28.01
13553;BME280;6847;48.830;9.116;2023-07-13T11:22:16;98124.84;;;38.98;28.60
13553;BME280;6847;48.830;9.116;2023-07-13T11:24:59;98116.13;;;38.14;29.95
13553;BME280;6847;48.830;9.116;2023-07-13T11:27:35;98115.53;;;37.05;30.61
13553;BME280;6847;48.830;9.116;2023-07-13T11:30:22;98108.59;;;35.91;31.43
13553;BME280;6847;48.830;9.116;2023-07-13T11:32:51;98103.19;;;35.12;32.22
13553;BME280;6847;48.830;9.116;2023-07-13T11:35:25;98012.31;;;33.96;32.29
13553;BME280;6847;48.830;9.116;2023-07-13T11:37:53;98097.31;;;34.24;32.10
13553;BME280;6847;48.830;9.116;2023-07-13T11:40:22;98090.22;;;34.15;31.86
13553;BME280;6847;48.830;9.116;2023-07-13T11:42:59;98087.19;;;34.06;31.65
13553;BME280;6847;48.830;9.116;2023-07-13T11:45:28;98092.03;;;33.56;32.14
13553;BME280;6847;48.830;9.116;2023-07-13T11:47:55;98086.84;;;32.97;32.36
13553;BME280;6847;48.830;9.116;2023-07-13T11:50:28;98081.69;;;32.92;32.27
13553;BME280;6847;48.830;9.116;2023-07-13T11:52:57;98085.13;;;33.87;31.71
13553;BME280;6847;48.830;9.116;2023-07-13T11:55:28;98087.56;;;34.91;30.21
13553;BME280;6847;48.830;9.116;2023-07-13T11:58:01;98045.34;;;35.27;30.07
13553;BME280;6847;48.830;9.116;2023-07-13T12:00:35;98034.28;;;35.85;29.33
13553;BME280;6847;48.830;9.116;2023-07-13T12:03:07;98076.84;;;36.19;29.69
13553;BME280;6847;48.830;9.116;2023-07-13T12:05:56;98109.78;;;35.57;30.32
13553;BME280;6847;48.830;9.116;2023-07-13T12:08:25;98108.78;;;34.96;30.51
13553;BME280;6847;48.830;9.116;2023-07-13T12:11:14;98086.16;;;34.99;30.37
13553;BME280;6847;48.830;9.116;2023-07-13T12:13:44;97954.91;;;33.97;30.54
13553;BME280;6847;48.830;9.116;2023-07-13T12:16:16;98093.00;;;34.39;31.08
13553;BME280;6847;48.830;9.116;2023-07-13T12:18:47;98100.59;;;34.18;30.58
13553;BME280;6847;48.830;9.116;2023-07-13T12:21:34;98101.09;;;33.90;30.84
13553;BME280;6847;48.830;9.116;2023-07-13T12:24:19;98094.88;;;33.79;31.30
13553;BME280;6847;48.830;9.116;2023-07-13T12:27:04;98079.00;;;34.15;30.30
13553;BME280;6847;48.830;9.116;2023-07-13T12:29:32;98090.88;;;34.66;30.19
13553;BME280;6847;48.830;9.116;2023-07-13T12:32:01;98074.88;;;34.63;29.95
13553;BME280;6847;48.830;9.116;2023-07-13T12:34:28;98097.53;;;34.96;30.02
13553;BME280;6847;48.830;9.116;2023-07-13T12:37:00;98083.91;;;35.30;29.79
13553;BME280;6847;48.830;9.116;2023-07-13T12:39:32;97957.41;;;34.87;29.50
13553;BME280;6847;48.830;9.116;2023-07-13T12:42:23;98091.84;;;36.00;29.57
13553;BME280;6847;48.830;9.116;2023-07-13T12:45:23;98108.13;;;36.25;29.47
13553;BME280;6847;48.830;9.116;2023-07-13T12:48:14;98100.94;;;36.53;29.17
13553;BME280;6847;48.830;9.116;2023-07-13T12:50:46;97930.28;;;35.29;29.25
13553;BME280;6847;48.830;9.116;2023-07-13T12:53:18;98095.97;;;36.57;28.92
13553;BME280;6847;48.830;9.116;2023-07-13T12:55:47;98091.59;;;36.97;29.07
13553;BME280;6847;48.830;9.116;2023-07-13T12:58:24;98065.88;;;37.46;28.01
13553;BME280;6847;48.830;9.116;2023-07-13T13:00:59;98105.34;;;38.22;27.64
13553;BME280;6847;48.830;9.116;2023-07-13T13:03:32;98107.66;;;38.49;27.71
13553;BME280;6847;48.830;9.116;2023-07-13T13:06:03;98099.88;;;37.81;28.49
13553;BME280;6847;48.830;9.116;2023-07-13T13:08:34;98103.72;;;36.69;28.71
13553;BME280;6847;48.830;9.116;2023-07-13T13:11:01;98043.25;;;35.47;29.69
13553;BME280;6847;48.830;9.116;2023-07-13T13:13:29;98014.22;;;34.42;29.79
13553;BME280;6847;48.830;9.116;2023-07-13T13:16:14;98081.28;;;34.44;30.24
13553;BME280;6847;48.830;9.116;2023-07-13T13:18:46;98074.28;;;34.09;29.64
13553;BME280;6847;48.830;9.116;2023-07-13T13:21:13;97968.34;;;33.16;30.15
13553;BME280;6847;48.830;9.116;2023-07-13T13:23:44;98033.25;;;33.45;29.92
13553;BME280;6847;48.830;9.116;2023-07-13T13:26:13;98085.19;;;33.84;29.20
13553;BME280;6847;48.830;9.116;2023-07-13T13:28:45;98087.53;;;34.32;29.09
13553;BME280;6847;48.830;9.116;2023-07-13T13:31:13;98043.88;;;34.47;28.26